createdAt,value
2018-03-14T00:01:58.069Z,4.90
2018-03-14T00:04:25.550Z,4.90
2018-03-14T00:06:53.028Z,4.90
2018-03-14T00:09:20.493Z,4.90
2018-03-14T00:11:47.973Z,4.90
2018-03-14T00:14:15.437Z,4.90
2018-03-14T00:16:42.906Z,4.90
2018-03-14T00:19:10.405Z,4.90
2018-03-14T00:21:37.876Z,4.90
2018-03-14T00:24:05.345Z,4.90
2018-03-14T00:26:32.819Z,4.90
2018-03-14T00:29:00.293Z,4.90
2018-03-14T00:31:27.763Z,4.90
2018-03-14T00:33:55.998Z,4.90
2018-03-14T00:36:23.479Z,4.90
2018-03-14T00:38:50.954Z,4.90
2018-03-14T00:41:18.421Z,4.90
2018-03-14T00:43:46.670Z,4.90
2018-03-14T00:46:14.146Z,4.80
2018-03-14T00:48:41.624Z,4.80
2018-03-14T00:51:09.111Z,4.80
2018-03-14T00:53:36.587Z,4.90
2018-03-14T00:56:04.074Z,4.90
2018-03-14T00:58:31.543Z,4.80
2018-03-14T01:00:59.769Z,4.80
2018-03-14T01:03:27.254Z,4.80
2018-03-14T01:05:54.742Z,4.80
2018-03-14T01:08:22.990Z,4.80
2018-03-14T01:10:50.454Z,4.80
2018-03-14T01:13:17.933Z,4.90
2018-03-14T01:15:46.183Z,4.90
2018-03-14T01:18:13.763Z,4.90
2018-03-14T01:20:42.014Z,4.80
2018-03-14T01:23:09.487Z,4.80
2018-03-14T01:25:36.952Z,4.80
2018-03-14T01:28:04.476Z,4.80
2018-03-14T01:30:31.919Z,4.80
2018-03-14T01:32:59.399Z,4.80
2018-03-14T01:35:26.871Z,4.90
2018-03-14T01:37:54.348Z,4.90
2018-03-14T01:40:22.589Z,4.90
2018-03-14T01:42:50.066Z,4.80
2018-03-14T01:45:17.550Z,4.70
2018-03-14T01:47:45.032Z,4.80
2018-03-14T01:50:12.497Z,4.80
2018-03-14T01:52:39.974Z,4.80
2018-03-14T01:55:07.442Z,4.80
2018-03-14T01:57:34.934Z,4.90
2018-03-14T02:00:03.201Z,4.90
2018-03-14T02:02:31.454Z,4.90
2018-03-14T02:04:58.944Z,4.90
2018-03-14T02:07:27.183Z,4.90
2018-03-14T02:09:54.646Z,4.80
2018-03-14T02:12:22.132Z,4.80
2018-03-14T02:14:50.366Z,4.90
2018-03-14T02:17:17.828Z,4.90
2018-03-14T02:19:45.306Z,4.80
2018-03-14T02:22:12.783Z,4.80
2018-03-14T02:24:41.026Z,4.90
2018-03-14T02:27:08.508Z,4.90
2018-03-14T02:29:36.754Z,4.90
2018-03-14T02:32:04.265Z,5.00
2018-03-14T02:34:31.750Z,4.90
2018-03-14T02:37:01.964Z,5.00
2018-03-14T02:39:29.428Z,5.00
2018-03-14T02:41:56.888Z,4.90
2018-03-14T02:44:24.379Z,4.90
2018-03-14T02:46:51.842Z,4.90
2018-03-14T02:49:19.341Z,4.90
2018-03-14T02:51:46.808Z,4.80
2018-03-14T02:54:14.281Z,4.80
2018-03-14T02:56:41.746Z,4.80
2018-03-14T02:59:09.211Z,4.80
2018-03-14T03:01:36.667Z,4.90
2018-03-14T03:04:04.133Z,4.80
2018-03-14T03:06:31.602Z,4.80
2018-03-14T03:08:59.083Z,4.80
2018-03-14T03:11:27.307Z,4.90
2018-03-14T03:13:54.787Z,4.90
2018-03-14T03:16:22.255Z,4.90
2018-03-14T03:18:49.713Z,4.90
2018-03-14T03:21:17.186Z,4.90
2018-03-14T03:23:44.662Z,4.90
2018-03-14T03:26:12.895Z,4.90
2018-03-14T03:28:40.362Z,4.90
2018-03-14T03:31:07.830Z,4.80
2018-03-14T03:33:35.303Z,4.80
2018-03-14T03:36:03.534Z,4.80
2018-03-14T03:38:31.006Z,4.70
2018-03-14T03:40:58.475Z,4.80
2018-03-14T03:43:25.947Z,4.70
2018-03-14T03:45:54.172Z,4.70
2018-03-14T03:48:21.649Z,4.70
2018-03-14T03:50:49.105Z,4.80
2018-03-14T03:53:16.594Z,4.80
2018-03-14T03:55:44.830Z,4.70
2018-03-14T03:58:12.305Z,4.70
2018-03-14T04:00:39.819Z,4.70
2018-03-14T04:03:08.013Z,4.70
2018-03-14T04:05:35.495Z,4.60
2018-03-14T04:08:02.957Z,4.60
2018-03-14T04:10:30.425Z,4.60
2018-03-14T04:12:57.890Z,4.60
2018-03-14T04:15:25.356Z,4.60
2018-03-14T04:17:53.586Z,4.60
2018-03-14T04:20:21.058Z,4.60
2018-03-14T04:22:48.527Z,4.60
2018-03-14T04:25:15.998Z,4.70
2018-03-14T04:27:44.232Z,4.70
2018-03-14T04:32:46.327Z,4.70
2018-03-14T04:35:13.789Z,4.70
2018-03-14T04:37:41.253Z,4.70
2018-03-14T04:40:08.727Z,4.70
2018-03-14T04:42:36.194Z,4.70
2018-03-14T04:45:04.426Z,4.60
2018-03-14T04:47:31.891Z,4.70
2018-03-14T04:49:59.372Z,4.60
2018-03-14T04:52:26.835Z,4.70
2018-03-14T04:54:54.310Z,4.70
2018-03-14T04:57:22.538Z,4.70
2018-03-14T04:59:50.012Z,4.70
2018-03-14T05:02:17.529Z,4.70
2018-03-14T05:04:45.747Z,4.70
2018-03-14T05:07:13.227Z,4.70
2018-03-14T05:09:40.694Z,4.60
2018-03-14T05:12:08.175Z,4.60
2018-03-14T05:14:35.654Z,4.70
2018-03-14T05:17:03.130Z,4.60
2018-03-14T05:19:30.603Z,4.60
2018-03-14T05:21:58.070Z,4.60
2018-03-14T05:24:26.318Z,4.70
2018-03-14T05:26:53.782Z,4.60
2018-03-14T05:29:21.267Z,4.70
2018-03-14T05:34:42.347Z,4.60
2018-03-14T05:37:10.391Z,4.70
2018-03-14T05:39:37.919Z,4.60
2018-03-14T05:42:05.379Z,4.60
2018-03-14T05:44:32.836Z,4.60
2018-03-14T05:47:00.275Z,4.60
2018-03-14T05:49:27.726Z,4.60
2018-03-14T05:51:55.302Z,4.60
2018-03-14T05:54:22.755Z,4.60
2018-03-14T05:56:50.387Z,4.60
2018-03-14T05:59:17.952Z,4.70
2018-03-14T06:01:45.391Z,4.70
2018-03-14T06:04:12.895Z,4.60
2018-03-14T06:06:40.330Z,4.70
2018-03-14T06:09:07.783Z,4.60
2018-03-14T06:11:35.234Z,4.60
2018-03-14T06:14:02.691Z,4.60
2018-03-14T06:16:30.141Z,4.60
2018-03-14T06:18:57.586Z,4.70
2018-03-14T06:21:25.033Z,4.60
2018-03-14T06:23:52.492Z,4.70
2018-03-14T06:26:19.926Z,4.70
2018-03-14T06:28:48.135Z,4.60
2018-03-14T06:31:15.571Z,4.70
2018-03-14T06:33:43.003Z,4.60
2018-03-14T06:36:11.215Z,4.70
2018-03-14T06:38:38.848Z,4.70
2018-03-14T06:41:06.299Z,4.70
2018-03-14T06:43:33.743Z,4.70
2018-03-14T06:46:01.967Z,4.70
2018-03-14T06:48:29.404Z,4.70
2018-03-14T06:50:56.854Z,4.70
2018-03-14T06:53:25.207Z,4.80
2018-03-14T06:55:53.482Z,4.90
2018-03-14T06:58:32.744Z,4.80
2018-03-14T07:33:26.707Z,5.10
2018-03-14T07:35:54.158Z,5.00
2018-03-14T07:38:21.587Z,5.00
2018-03-14T07:40:49.799Z,5.00
2018-03-14T07:43:17.234Z,5.00
2018-03-14T07:45:44.684Z,5.00
2018-03-14T07:48:12.882Z,4.60
2018-03-14T07:50:40.318Z,4.70
2018-03-14T07:53:07.752Z,4.70
2018-03-14T07:55:35.955Z,4.60
2018-03-14T07:58:03.395Z,4.60
2018-03-14T08:00:31.607Z,4.50
2018-03-14T08:02:59.043Z,4.50
2018-03-14T08:05:26.494Z,4.50
2018-03-14T08:07:53.920Z,4.40
2018-03-14T08:10:22.147Z,4.70
2018-03-14T08:12:49.591Z,4.70
2018-03-14T08:15:17.030Z,4.70
2018-03-14T08:17:44.467Z,4.70
2018-03-14T08:20:12.683Z,4.90
2018-03-14T08:22:40.119Z,4.90
2018-03-14T08:25:07.560Z,4.80
2018-03-14T08:27:34.999Z,4.90
2018-03-14T08:30:03.208Z,5.00
2018-03-14T08:32:30.647Z,5.00
2018-03-14T08:34:58.091Z,5.00
2018-03-14T08:37:26.309Z,5.10
2018-03-14T08:39:54.507Z,5.30
2018-03-14T08:42:21.959Z,5.20
2018-03-14T08:44:49.391Z,5.40
2018-03-14T08:47:16.833Z,5.40
2018-03-14T08:49:44.266Z,5.40
2018-03-14T08:52:11.761Z,5.50
2018-03-14T08:54:39.175Z,5.60
2018-03-14T08:57:06.619Z,5.50
2018-03-14T08:59:34.823Z,5.70
2018-03-14T09:02:02.264Z,5.70
2018-03-14T09:04:29.698Z,5.70
2018-03-14T09:06:57.908Z,5.80
2018-03-14T09:09:25.339Z,5.80
2018-03-14T09:11:52.779Z,5.80
2018-03-14T09:14:20.988Z,5.90
2018-03-14T09:16:48.431Z,5.90
2018-03-14T09:19:15.863Z,5.90
2018-03-14T09:21:44.079Z,6.00
2018-03-14T09:24:11.511Z,6.00
2018-03-14T09:26:38.954Z,6.00
2018-03-14T09:29:07.158Z,6.00
2018-03-14T09:31:34.598Z,6.00
2018-03-14T09:34:02.044Z,6.10
2018-03-14T09:36:30.255Z,6.00
2018-03-14T09:38:57.696Z,6.00
2018-03-14T09:41:25.143Z,6.10
2018-03-14T09:43:52.580Z,6.20
2018-03-14T09:46:20.787Z,6.30
2018-03-14T09:48:48.231Z,6.20
2018-03-14T09:51:15.678Z,6.40
2018-03-14T09:53:43.113Z,6.40
2018-03-14T09:56:11.322Z,6.50
2018-03-14T09:58:38.755Z,6.50
2018-03-14T10:01:06.204Z,6.30
2018-03-14T10:03:33.641Z,6.20
2018-03-14T10:06:01.068Z,6.20
2018-03-14T10:08:28.511Z,6.30
2018-03-14T10:10:55.951Z,6.30
2018-03-14T10:13:23.387Z,6.20
2018-03-14T10:15:50.822Z,6.30
2018-03-14T10:18:19.026Z,6.30
2018-03-14T10:20:46.460Z,6.30
2018-03-14T10:23:14.664Z,6.50
2018-03-14T10:25:42.214Z,6.50
2018-03-14T10:28:09.530Z,6.70
2018-03-14T10:30:37.796Z,6.40
2018-03-14T10:33:05.231Z,6.40
2018-03-14T10:35:32.671Z,6.60
2018-03-14T10:38:00.113Z,6.70
2018-03-14T10:40:27.542Z,6.60
2018-03-14T10:42:54.979Z,6.70
2018-03-14T10:45:23.185Z,6.80
2018-03-14T10:47:50.627Z,6.70
2018-03-14T10:50:18.054Z,6.80
2018-03-14T10:52:45.491Z,6.80
2018-03-14T10:55:12.918Z,6.80
2018-03-14T10:57:40.358Z,6.90
2018-03-14T11:00:07.801Z,7.10
2018-03-14T11:05:36.859Z,6.90
2018-03-14T11:08:05.084Z,7.00
2018-03-14T11:10:32.571Z,7.00
2018-03-14T11:13:01.475Z,7.00
2018-03-14T11:15:29.769Z,6.90
2018-03-14T11:17:57.986Z,6.90
2018-03-14T11:20:25.431Z,6.90
2018-03-14T11:22:52.871Z,6.80
2018-03-14T11:25:20.364Z,6.80
2018-03-14T11:27:47.807Z,6.80
2018-03-14T11:30:15.285Z,6.90
2018-03-14T11:32:42.771Z,6.90
2018-03-14T11:35:10.608Z,6.90
2018-03-14T11:37:38.035Z,7.00
2018-03-14T11:40:05.485Z,7.10
2018-03-14T11:42:32.946Z,6.70
2018-03-14T11:45:00.407Z,6.60
2018-03-14T11:47:27.870Z,6.50
2018-03-14T11:49:55.298Z,6.50
2018-03-14T11:52:23.499Z,6.40
2018-03-14T11:54:50.963Z,6.40
2018-03-14T11:57:18.513Z,6.60
2018-03-14T11:59:46.036Z,6.80
2018-03-14T12:02:14.245Z,6.50
2018-03-14T12:04:41.684Z,6.50
2018-03-14T12:07:09.896Z,6.80
2018-03-14T12:09:37.336Z,6.90
2018-03-14T12:12:04.798Z,6.80
2018-03-14T12:14:32.227Z,6.90
2018-03-14T12:17:00.532Z,6.90
2018-03-14T12:19:27.974Z,6.90
2018-03-14T12:21:55.448Z,6.80
2018-03-14T12:24:22.905Z,6.70
2018-03-14T12:26:50.330Z,6.90
2018-03-14T12:29:18.548Z,7.00
2018-03-14T12:31:45.991Z,7.10
2018-03-14T12:34:13.452Z,7.10
2018-03-14T12:36:40.939Z,7.20
2018-03-14T12:39:08.492Z,7.20
2018-03-14T12:41:35.928Z,7.20
2018-03-14T12:44:03.371Z,7.30
2018-03-14T12:46:30.819Z,7.30
2018-03-14T12:48:58.328Z,7.30
2018-03-14T12:51:25.887Z,7.40
2018-03-14T12:53:53.327Z,7.40
2018-03-14T12:56:20.851Z,7.50
2018-03-14T12:58:48.325Z,7.50
2018-03-14T13:01:15.820Z,7.70
2018-03-14T13:03:43.265Z,7.60
2018-03-14T13:06:10.710Z,7.60
2018-03-14T13:08:38.167Z,7.70
2018-03-14T13:11:05.647Z,7.70
2018-03-14T13:13:33.202Z,7.60
2018-03-14T13:16:00.644Z,7.60
2018-03-14T13:18:28.101Z,7.70
2018-03-14T13:20:55.947Z,7.60
2018-03-14T13:23:24.180Z,7.50
2018-03-14T13:25:51.624Z,7.40
2018-03-14T13:28:19.108Z,7.50
2018-03-14T13:30:46.654Z,7.50
2018-03-14T13:33:14.095Z,7.70
2018-03-14T13:35:41.536Z,7.80
2018-03-14T13:38:08.979Z,7.90
2018-03-14T13:40:36.467Z,8.00
2018-03-14T13:43:04.439Z,8.00
2018-03-14T13:45:32.202Z,7.90
2018-03-14T13:47:59.650Z,7.90
2018-03-14T13:50:27.123Z,7.90
2018-03-14T13:52:54.582Z,7.90
2018-03-14T13:55:22.020Z,8.00
2018-03-14T13:57:49.563Z,8.00
2018-03-14T14:00:17.007Z,8.00
2018-03-14T14:02:45.229Z,7.90
2018-03-14T14:05:12.675Z,7.90
2018-03-14T14:07:40.121Z,8.00
2018-03-14T14:10:07.550Z,7.90
2018-03-14T14:12:36.014Z,7.90
2018-03-14T14:15:03.548Z,7.90
2018-03-14T14:17:30.992Z,7.90
2018-03-14T14:19:58.439Z,7.90
2018-03-14T14:22:25.895Z,8.00
2018-03-14T14:24:53.349Z,8.00
2018-03-14T14:27:20.827Z,8.10
2018-03-14T14:29:48.283Z,8.00
2018-03-14T14:32:15.748Z,8.10
2018-03-14T14:34:43.183Z,8.10
2018-03-14T14:37:10.651Z,8.30
2018-03-14T14:39:38.138Z,8.30
2018-03-14T14:42:05.700Z,8.30
2018-03-14T14:44:33.142Z,8.10
2018-03-14T14:47:00.596Z,8.00
2018-03-14T14:49:28.028Z,8.00
2018-03-14T14:51:55.516Z,8.10
2018-03-14T14:54:22.976Z,8.00
2018-03-14T14:56:50.533Z,8.00
2018-03-14T14:59:17.996Z,7.90
2018-03-14T15:01:45.448Z,7.90
2018-03-14T15:04:12.887Z,7.90
2018-03-14T15:06:40.343Z,7.70
2018-03-14T15:09:07.771Z,7.70
2018-03-14T15:11:35.211Z,7.80
2018-03-14T15:14:03.416Z,7.70
2018-03-14T15:16:30.851Z,7.70
2018-03-14T15:18:59.066Z,7.70
2018-03-14T15:21:26.574Z,7.70
2018-03-14T15:23:53.999Z,7.80
2018-03-14T15:26:21.440Z,7.90
2018-03-14T15:28:48.883Z,7.90
2018-03-14T15:31:16.326Z,7.70
2018-03-14T15:33:44.543Z,7.90
2018-03-14T15:36:12.097Z,7.90
2018-03-14T15:38:39.423Z,7.90
2018-03-14T15:41:06.855Z,8.00
2018-03-14T15:43:35.084Z,8.50
2018-03-14T15:46:02.555Z,8.40
2018-03-14T15:48:30.060Z,8.60
2018-03-14T15:50:57.504Z,8.50
2018-03-14T15:53:25.736Z,7.90
2018-03-14T15:55:53.180Z,7.80
2018-03-14T15:58:20.627Z,7.70
2018-03-14T16:00:48.116Z,7.70
2018-03-14T16:03:15.547Z,7.70
2018-03-14T16:05:42.996Z,7.50
2018-03-14T16:08:11.219Z,7.50
2018-03-14T16:10:38.762Z,7.50
2018-03-14T16:13:06.200Z,7.60
2018-03-14T16:15:33.665Z,7.70
2018-03-14T16:18:01.117Z,7.90
2018-03-14T16:20:28.622Z,8.00
2018-03-14T16:22:56.143Z,8.10
2018-03-14T16:25:23.539Z,7.90
2018-03-14T16:27:51.073Z,8.00
2018-03-14T16:30:18.520Z,7.90
2018-03-14T16:32:46.823Z,7.90
2018-03-14T16:35:14.426Z,8.00
2018-03-14T16:37:42.622Z,8.20
2018-03-14T16:40:10.120Z,8.20
2018-03-14T16:42:37.508Z,8.20
2018-03-14T16:45:05.735Z,8.00
2018-03-14T16:47:33.207Z,8.00
2018-03-14T16:50:01.466Z,8.10
2018-03-14T16:52:34.154Z,8.10
2018-03-14T16:55:19.438Z,8.10
2018-03-14T16:57:48.375Z,8.10
2018-03-14T17:00:23.100Z,7.90
2018-03-14T17:02:59.312Z,7.80
2018-03-14T17:08:20.183Z,7.50
2018-03-14T17:10:48.407Z,7.20
2018-03-14T17:13:15.969Z,7.20
2018-03-14T17:18:37.477Z,6.80
2018-03-14T17:21:05.596Z,6.80
2018-03-14T17:23:33.052Z,6.70
2018-03-14T17:26:06.748Z,6.60
2018-03-14T17:28:34.186Z,6.50
2018-03-14T17:36:26.765Z,6.20
2018-03-14T17:38:54.275Z,6.10
2018-03-14T17:41:21.725Z,6.00
2018-03-14T17:43:49.346Z,5.90
2018-03-14T17:46:16.728Z,5.80
2018-03-14T17:48:53.326Z,5.80
2018-03-14T17:51:20.712Z,5.70
2018-03-14T17:53:48.176Z,5.60
2018-03-14T17:56:27.356Z,5.40
2018-03-14T17:58:54.792Z,5.30
2018-03-14T18:01:22.359Z,5.30
2018-03-14T18:04:03.376Z,5.10
2018-03-14T18:06:31.584Z,5.00
2018-03-14T18:08:59.061Z,5.00
2018-03-14T18:11:26.499Z,5.00
2018-03-14T18:13:53.935Z,4.90
2018-03-14T18:16:21.827Z,4.80
2018-03-14T18:18:49.312Z,4.70
2018-03-14T18:21:31.421Z,4.60
2018-03-14T18:23:58.891Z,4.50
2018-03-14T18:26:26.450Z,4.50
2018-03-14T18:28:53.896Z,4.40
2018-03-14T18:31:21.343Z,4.40
2018-03-14T18:33:48.795Z,4.30
2018-03-14T18:36:19.808Z,4.20
2018-03-14T18:38:47.407Z,4.20
2018-03-14T18:41:14.860Z,4.20
2018-03-14T18:43:42.291Z,4.20
2018-03-14T18:46:09.932Z,4.20
2018-03-14T18:48:38.128Z,4.00
2018-03-14T18:51:05.786Z,4.00
2018-03-14T18:53:33.215Z,3.90
2018-03-14T18:56:01.447Z,3.70
2018-03-14T18:58:28.886Z,3.70
2018-03-14T19:00:59.170Z,3.70
2018-03-14T19:03:28.520Z,3.60
2018-03-14T19:05:55.963Z,3.60
2018-03-14T19:08:23.399Z,3.50
2018-03-14T19:10:50.849Z,3.40
2018-03-14T19:13:19.082Z,3.50
2018-03-14T19:15:46.535Z,3.50
2018-03-14T19:18:13.971Z,3.50
2018-03-14T19:20:41.641Z,3.40
2018-03-14T19:23:09.071Z,3.40
2018-03-14T19:25:38.210Z,3.40
2018-03-14T19:28:07.302Z,3.40
2018-03-14T19:30:35.044Z,3.40
2018-03-14T19:33:02.475Z,3.40
2018-03-14T19:35:29.944Z,3.30
2018-03-14T19:37:57.533Z,3.30
2018-03-14T19:40:24.979Z,3.30
2018-03-14T19:42:52.420Z,3.30
2018-03-14T19:48:13.320Z,3.30
2018-03-14T19:50:41.662Z,3.30
2018-03-14T19:53:09.097Z,3.30
2018-03-14T19:55:36.571Z,3.30
2018-03-14T19:58:04.072Z,3.30
2018-03-14T20:00:31.508Z,3.30
2018-03-14T20:02:59.836Z,3.20
2018-03-14T20:08:21.786Z,3.30
2018-03-14T20:10:49.303Z,3.20
2018-03-14T20:13:16.744Z,3.30
2018-03-14T20:16:00.416Z,3.30
2018-03-14T20:18:45.295Z,3.30
2018-03-14T20:21:25.015Z,3.20
2018-03-14T20:23:52.460Z,3.30
2018-03-14T20:26:31.556Z,3.20
2018-03-14T20:28:59.132Z,3.30
2018-03-14T20:31:29.719Z,3.20
2018-03-14T20:33:57.188Z,3.20
2018-03-14T20:36:24.627Z,3.30
2018-03-14T20:38:53.447Z,3.30
2018-03-14T20:41:20.879Z,3.30
2018-03-14T20:43:48.314Z,3.30
2018-03-14T20:46:15.843Z,3.30
2018-03-14T20:48:43.307Z,3.30
2018-03-14T20:51:10.752Z,3.30
2018-03-14T20:53:38.851Z,3.30
2018-03-14T20:56:06.376Z,3.30
2018-03-14T20:58:33.747Z,3.30
2018-03-14T21:01:01.240Z,3.30
2018-03-14T21:03:29.484Z,3.30
2018-03-14T21:05:56.996Z,3.30
2018-03-14T21:08:24.470Z,3.40
2018-03-14T21:10:52.371Z,3.30
2018-03-14T21:13:19.809Z,3.30
2018-03-14T21:15:47.287Z,3.30
2018-03-14T21:18:14.983Z,3.40
2018-03-14T21:20:43.310Z,3.30
2018-03-14T21:23:12.055Z,3.30
2018-03-14T21:25:40.298Z,3.30
2018-03-14T21:28:07.848Z,3.30
2018-03-14T21:30:35.292Z,3.30
2018-03-14T21:33:02.767Z,3.40
2018-03-14T21:35:30.226Z,3.40
2018-03-14T21:37:57.680Z,3.40
2018-03-14T21:40:25.237Z,3.40
2018-03-14T21:42:52.799Z,3.50
2018-03-14T21:45:20.366Z,3.50
2018-03-14T21:47:47.814Z,3.40
2018-03-14T21:50:15.250Z,3.50
2018-03-14T21:52:42.708Z,3.50
2018-03-14T21:55:10.188Z,3.40
2018-03-14T21:57:37.743Z,3.50
2018-03-14T22:00:05.187Z,3.50
2018-03-14T22:02:32.882Z,3.50
2018-03-14T22:05:00.404Z,3.50
2018-03-14T22:07:27.751Z,3.50
2018-03-14T22:09:55.250Z,3.50
2018-03-14T22:12:22.707Z,3.50
2018-03-14T22:14:50.151Z,3.40
2018-03-14T22:17:18.210Z,3.50
2018-03-14T22:19:45.687Z,3.40
2018-03-14T22:22:13.147Z,3.40
2018-03-14T22:24:40.604Z,3.40
2018-03-14T22:27:08.063Z,3.40
2018-03-14T22:29:35.499Z,3.40
2018-03-14T22:32:02.980Z,3.40
2018-03-14T22:34:30.431Z,3.40
2018-03-14T22:36:57.934Z,3.40
2018-03-14T22:39:25.346Z,3.40
2018-03-14T22:41:52.860Z,3.40
2018-03-14T22:44:20.294Z,3.40
2018-03-14T22:46:48.541Z,3.30
2018-03-14T22:49:15.999Z,3.30
2018-03-14T22:51:43.573Z,3.40
2018-03-14T22:54:11.020Z,3.40
2018-03-14T22:56:38.464Z,3.40
2018-03-14T22:59:05.931Z,3.40
2018-03-14T23:01:33.374Z,3.40
2018-03-14T23:04:14.321Z,3.40
2018-03-14T23:06:42.526Z,3.40
2018-03-14T23:09:09.996Z,3.40
2018-03-14T23:11:37.442Z,3.40
2018-03-14T23:14:04.891Z,3.30
2018-03-14T23:16:32.356Z,3.40
2018-03-14T23:18:59.808Z,3.30
2018-03-14T23:21:27.248Z,3.40
2018-03-14T23:23:54.738Z,3.40
2018-03-14T23:26:22.187Z,3.30
2018-03-14T23:28:49.659Z,3.30
2018-03-14T23:31:17.103Z,3.30
2018-03-14T23:33:44.556Z,3.30
2018-03-14T23:36:12.005Z,3.30
2018-03-14T23:38:39.443Z,3.20
2018-03-14T23:41:06.886Z,3.20
2018-03-14T23:43:35.119Z,3.20
2018-03-14T23:46:02.563Z,3.20
2018-03-14T23:48:30.009Z,3.20
2018-03-14T23:50:57.451Z,3.20
2018-03-14T23:53:24.907Z,3.20
2018-03-14T23:55:52.347Z,3.20
2018-03-14T23:58:20.583Z,3.20
